sensor_id;sensor_type;location;lat;lon;timestamp;P1;P2;P0
63707;PMS5003;67643;-34.198;22.084;2023-06-10T00:02:21;1;1;
63707;PMS5003;67643;-34.198;22.084;2023-06-10T00:04:49;2;2;
63707;PMS5003;67643;-34.198;22.084;2023-06-10T00:07:18;3;3;
63707;PMS5003;67643;-34.198;22.084;2023-06-10T00:09:46;2;2;
63707;PMS5003;67643;-34.198;22.084;2023-06-10T00:12:15;2;2;
63707;PMS5003;67643;-34.198;22.084;2023-06-10T00:14:43;3;3;
63707;PMS5003;67643;-34.198;22.084;2023-06-10T00:17:12;2;2;
63707;PMS5003;67643;-34.198;22.084;2023-06-10T00:19:41;1;1;
63707;PMS5003;67643;-34.198;22.084;2023-06-10T00:22:09;5;3;
63707;PMS5003;67643;-34.198;22.084;2023-06-10T00:24:38;4;2;
63707;PMS5003;67643;-34.198;22.084;2023-06-10T00:27:07;5;3;
63707;PMS5003;67643;-34.198;22.084;2023-06-10T00:29:35;1;1;
63707;PMS5003;67643;-34.198;22.084;2023-06-10T00:32:04;3;2;
63707;PMS5003;67643;-34.198;22.084;2023-06-10T00:34:33;4;2;
63707;PMS5003;67643;-34.198;22.084;2023-06-10T00:37:02;1;1;
63707;PMS5003;67643;-34.198;22.084;2023-06-10T00:39:31;4;3;
63707;PMS5003;67643;-34.198;22.084;2023-06-10T00:42:00;5;3;
63707;PMS5003;67643;-34.198;22.084;2023-06-10T00:44:29;5;3;
63707;PMS5003;67643;-34.198;22.084;2023-06-10T00:46:57;5;3;
63707;PMS5003;67643;-34.198;22.084;2023-06-10T00:49:26;3;2;
63707;PMS5003;67643;-34.198;22.084;2023-06-10T00:51:54;4;2;
63707;PMS5003;67643;-34.198;22.084;2023-06-10T00:54:23;4;2;
63707;PMS5003;67643;-34.198;22.084;2023-06-10T00:56:52;6;3;
63707;PMS5003;67643;-34.198;22.084;2023-06-10T00:59:22;3;3;
63707;PMS5003;67643;-34.198;22.084;2023-06-10T01:01:50;2;2;
63707;PMS5003;67643;-34.198;22.084;2023-06-10T01:04:19;4;3;
63707;PMS5003;67643;-34.198;22.084;2023-06-10T01:06:50;2;2;
63707;PMS5003;67643;-34.198;22.084;2023-06-10T01:09:28;3;1;
63707;PMS5003;67643;-34.198;22.084;2023-06-10T01:12:11;6;3;
63707;PMS5003;67643;-34.198;22.084;2023-06-10T01:14:43;2;2;
63707;PMS5003;67643;-34.198;22.084;2023-06-10T01:17:13;7;4;
63707;PMS5003;67643;-34.198;22.084;2023-06-10T01:19:41;5;3;
63707;PMS5003;67643;-34.198;22.084;2023-06-10T01:22:10;5;3;
63707;PMS5003;67643;-34.198;22.084;2023-06-10T01:24:39;4;3;
63707;PMS5003;67643;-34.198;22.084;2023-06-10T01:27:08;6;2;
63707;PMS5003;67643;-34.198;22.084;2023-06-10T01:29:41;4;2;
63707;PMS5003;67643;-34.198;22.084;2023-06-10T01:32:15;2;1;
63707;PMS5003;67643;-34.198;22.084;2023-06-10T01:34:46;4;2;
63707;PMS5003;67643;-34.198;22.084;2023-06-10T01:37:17;3;3;
63707;PMS5003;67643;-34.198;22.084;2023-06-10T01:39:47;7;4;
63707;PMS5003;67643;-34.198;22.084;2023-06-10T01:42:16;4;3;
63707;PMS5003;67643;-34.198;22.084;2023-06-10T01:44:45;4;4;
63707;PMS5003;67643;-34.198;22.084;2023-06-10T01:47:14;6;3;
63707;PMS5003;67643;-34.198;22.084;2023-06-10T01:49:43;3;2;
63707;PMS5003;67643;-34.198;22.084;2023-06-10T01:52:11;4;3;
63707;PMS5003;67643;-34.198;22.084;2023-06-10T01:54:40;4;2;
63707;PMS5003;67643;-34.198;22.084;2023-06-10T01:57:09;5;1;
63707;PMS5003;67643;-34.198;22.084;2023-06-10T01:59:37;2;2;
63707;PMS5003;67643;-34.198;22.084;2023-06-10T02:02:05;4;1;
63707;PMS5003;67643;-34.198;22.084;2023-06-10T02:04:34;3;1;
63707;PMS5003;67643;-34.198;22.084;2023-06-10T02:07:03;3;1;
63707;PMS5003;67643;-34.198;22.084;2023-06-10T02:09:32;6;3;
63707;PMS5003;67643;-34.198;22.084;2023-06-10T02:12:02;1;1;
63707;PMS5003;67643;-34.198;22.084;2023-06-10T02:14:32;0;0;
63707;PMS5003;67643;-34.198;22.084;2023-06-10T02:17:00;4;2;
63707;PMS5003;67643;-34.198;22.084;2023-06-10T02:19:29;2;0;
63707;PMS5003;67643;-34.198;22.084;2023-06-10T02:21:58;1;1;
63707;PMS5003;67643;-34.198;22.084;2023-06-10T02:24:26;3;2;
63707;PMS5003;67643;-34.198;22.084;2023-06-10T02:26:55;2;2;
63707;PMS5003;67643;-34.198;22.084;2023-06-10T02:29:23;2;2;
63707;PMS5003;67643;-34.198;22.084;2023-06-10T02:31:52;2;1;
63707;PMS5003;67643;-34.198;22.084;2023-06-10T02:34:21;2;1;
63707;PMS5003;67643;-34.198;22.084;2023-06-10T02:36:49;1;1;
63707;PMS5003;67643;-34.198;22.084;2023-06-10T02:39:19;0;0;
63707;PMS5003;67643;-34.198;22.084;2023-06-10T02:41:48;2;1;
63707;PMS5003;67643;-34.198;22.084;2023-06-10T02:44:17;1;0;
63707;PMS5003;67643;-34.198;22.084;2023-06-10T02:46:46;1;1;
63707;PMS5003;67643;-34.198;22.084;2023-06-10T02:49:15;0;0;
63707;PMS5003;67643;-34.198;22.084;2023-06-10T02:51:43;0;0;
63707;PMS5003;67643;-34.198;22.084;2023-06-10T02:54:12;1;1;
63707;PMS5003;67643;-34.198;22.084;2023-06-10T02:56:40;1;1;
63707;PMS5003;67643;-34.198;22.084;2023-06-10T02:59:09;2;0;
63707;PMS5003;67643;-34.198;22.084;2023-06-10T03:01:38;0;0;
63707;PMS5003;67643;-34.198;22.084;2023-06-10T03:04:06;0;0;
63707;PMS5003;67643;-34.198;22.084;2023-06-10T03:06:35;3;2;
63707;PMS5003;67643;-34.198;22.084;2023-06-10T03:09:03;1;1;
63707;PMS5003;67643;-34.198;22.084;2023-06-10T03:11:32;0;0;
63707;PMS5003;67643;-34.198;22.084;2023-06-10T03:14:01;0;0;
63707;PMS5003;67643;-34.198;22.084;2023-06-10T03:16:29;3;1;
63707;PMS5003;67643;-34.198;22.084;2023-06-10T03:18:58;1;1;
63707;PMS5003;67643;-34.198;22.084;2023-06-10T03:21:26;0;0;
63707;PMS5003;67643;-34.198;22.084;2023-06-10T03:23:55;5;3;
63707;PMS5003;67643;-34.198;22.084;2023-06-10T03:26:23;0;0;
63707;PMS5003;67643;-34.198;22.084;2023-06-10T03:28:53;1;1;
63707;PMS5003;67643;-34.198;22.084;2023-06-10T03:31:21;0;0;
63707;PMS5003;67643;-34.198;22.084;2023-06-10T03:33:50;0;0;
63707;PMS5003;67643;-34.198;22.084;2023-06-10T03:36:18;0;0;
63707;PMS5003;67643;-34.198;22.084;2023-06-10T03:38:47;0;0;
63707;PMS5003;67643;-34.198;22.084;2023-06-10T03:41:16;0;0;
63707;PMS5003;67643;-34.198;22.084;2023-06-10T03:43:45;0;0;
63707;PMS5003;67643;-34.198;22.084;2023-06-10T03:46:13;0;0;
63707;PMS5003;67643;-34.198;22.084;2023-06-10T03:48:42;1;0;
63707;PMS5003;67643;-34.198;22.084;2023-06-10T03:51:11;0;0;
63707;PMS5003;67643;-34.198;22.084;2023-06-10T03:53:39;0;0;
63707;PMS5003;67643;-34.198;22.084;2023-06-10T03:56:08;0;0;
63707;PMS5003;67643;-34.198;22.084;2023-06-10T03:58:37;1;0;
63707;PMS5003;67643;-34.198;22.084;2023-06-10T04:01:06;0;0;
63707;PMS5003;67643;-34.198;22.084;2023-06-10T04:03:34;1;1;
63707;PMS5003;67643;-34.198;22.084;2023-06-10T04:06:03;1;1;
63707;PMS5003;67643;-34.198;22.084;2023-06-10T04:08:32;0;0;
63707;PMS5003;67643;-34.198;22.084;2023-06-10T04:11:00;1;1;
63707;PMS5003;67643;-34.198;22.084;2023-06-10T04:13:29;0;0;
63707;PMS5003;67643;-34.198;22.084;2023-06-10T04:15:57;0;0;
63707;PMS5003;67643;-34.198;22.084;2023-06-10T04:18:26;0;0;
63707;PMS5003;67643;-34.198;22.084;2023-06-10T04:20:54;0;0;
63707;PMS5003;67643;-34.198;22.084;2023-06-10T04:23:23;1;0;
63707;PMS5003;67643;-34.198;22.084;2023-06-10T04:25:52;0;0;
63707;PMS5003;67643;-34.198;22.084;2023-06-10T04:28:20;0;0;
63707;PMS5003;67643;-34.198;22.084;2023-06-10T04:30:49;1;0;
63707;PMS5003;67643;-34.198;22.084;2023-06-10T04:33:18;0;0;
63707;PMS5003;67643;-34.198;22.084;2023-06-10T04:35:47;2;0;
63707;PMS5003;67643;-34.198;22.084;2023-06-10T04:38:15;1;1;
63707;PMS5003;67643;-34.198;22.084;2023-06-10T04:40:44;0;0;
63707;PMS5003;67643;-34.198;22.084;2023-06-10T04:43:13;2;0;
63707;PMS5003;67643;-34.198;22.084;2023-06-10T04:45:42;0;0;
63707;PMS5003;67643;-34.198;22.084;2023-06-10T04:48:11;0;0;
63707;PMS5003;67643;-34.198;22.084;2023-06-10T04:50:39;0;0;
63707;PMS5003;67643;-34.198;22.084;2023-06-10T04:53:08;1;0;
63707;PMS5003;67643;-34.198;22.084;2023-06-10T04:55:36;0;0;
63707;PMS5003;67643;-34.198;22.084;2023-06-10T04:58:05;0;0;
63707;PMS5003;67643;-34.198;22.084;2023-06-10T05:00:33;0;0;
63707;PMS5003;67643;-34.198;22.084;2023-06-10T05:03:02;0;0;
63707;PMS5003;67643;-34.198;22.084;2023-06-10T05:05:31;0;0;
63707;PMS5003;67643;-34.198;22.084;2023-06-10T05:07:59;0;0;
63707;PMS5003;67643;-34.198;22.084;2023-06-10T05:10:28;0;0;
63707;PMS5003;67643;-34.198;22.084;2023-06-10T05:12:56;0;0;
63707;PMS5003;67643;-34.198;22.084;2023-06-10T05:15:25;0;0;
63707;PMS5003;67643;-34.198;22.084;2023-06-10T05:17:55;1;1;
63707;PMS5003;67643;-34.198;22.084;2023-06-10T05:20:24;0;0;
63707;PMS5003;67643;-34.198;22.084;2023-06-10T05:22:52;0;0;
63707;PMS5003;67643;-34.198;22.084;2023-06-10T05:25:21;0;0;
63707;PMS5003;67643;-34.198;22.084;2023-06-10T05:27:50;0;0;
63707;PMS5003;67643;-34.198;22.084;2023-06-10T05:30:18;0;0;
63707;PMS5003;67643;-34.198;22.084;2023-06-10T05:32:47;0;0;
63707;PMS5003;67643;-34.198;22.084;2023-06-10T05:35:15;0;0;
63707;PMS5003;67643;-34.198;22.084;2023-06-10T05:37:44;0;0;
63707;PMS5003;67643;-34.198;22.084;2023-06-10T05:40:12;0;0;
63707;PMS5003;67643;-34.198;22.084;2023-06-10T05:42:41;1;0;
63707;PMS5003;67643;-34.198;22.084;2023-06-10T05:45:10;0;0;
63707;PMS5003;67643;-34.198;22.084;2023-06-10T05:47:39;0;0;
63707;PMS5003;67643;-34.198;22.084;2023-06-10T05:50:08;0;0;
63707;PMS5003;67643;-34.198;22.084;2023-06-10T05:52:37;0;0;
63707;PMS5003;67643;-34.198;22.084;2023-06-10T05:55:06;0;0;
63707;PMS5003;67643;-34.198;22.084;2023-06-10T05:57:35;0;0;
63707;PMS5003;67643;-34.198;22.084;2023-06-10T06:00:04;0;0;
63707;PMS5003;67643;-34.198;22.084;2023-06-10T06:02:34;0;0;
63707;PMS5003;67643;-34.198;22.084;2023-06-10T06:05:03;0;0;
63707;PMS5003;67643;-34.198;22.084;2023-06-10T06:07:32;1;0;
63707;PMS5003;67643;-34.198;22.084;2023-06-10T06:10:00;0;0;
63707;PMS5003;67643;-34.198;22.084;2023-06-10T06:12:29;0;0;
63707;PMS5003;67643;-34.198;22.084;2023-06-10T06:14:57;0;0;
63707;PMS5003;67643;-34.198;22.084;2023-06-10T06:17:26;0;0;
63707;PMS5003;67643;-34.198;22.084;2023-06-10T06:19:55;0;0;
63707;PMS5003;67643;-34.198;22.084;2023-06-10T06:22:23;0;0;
63707;PMS5003;67643;-34.198;22.084;2023-06-10T06:24:52;0;0;
63707;PMS5003;67643;-34.198;22.084;2023-06-10T06:27:20;0;0;
63707;PMS5003;67643;-34.198;22.084;2023-06-10T06:29:49;0;0;
63707;PMS5003;67643;-34.198;22.084;2023-06-10T06:32:18;0;0;
63707;PMS5003;67643;-34.198;22.084;2023-06-10T06:34:46;0;0;
63707;PMS5003;67643;-34.198;22.084;2023-06-10T06:37:15;0;0;
63707;PMS5003;67643;-34.198;22.084;2023-06-10T06:39:43;0;0;
63707;PMS5003;67643;-34.198;22.084;2023-06-10T06:42:12;1;1;
63707;PMS5003;67643;-34.198;22.084;2023-06-10T06:44:40;0;0;
63707;PMS5003;67643;-34.198;22.084;2023-06-10T06:47:10;0;0;
63707;PMS5003;67643;-34.198;22.084;2023-06-10T06:49:38;0;0;
63707;PMS5003;67643;-34.198;22.084;2023-06-10T06:52:07;0;0;
63707;PMS5003;67643;-34.198;22.084;2023-06-10T06:54:36;1;1;
63707;PMS5003;67643;-34.198;22.084;2023-06-10T06:57:04;1;1;
63707;PMS5003;67643;-34.198;22.084;2023-06-10T06:59:34;1;0;
63707;PMS5003;67643;-34.198;22.084;2023-06-10T07:02:02;0;0;
63707;PMS5003;67643;-34.198;22.084;2023-06-10T07:04:31;1;1;
63707;PMS5003;67643;-34.198;22.084;2023-06-10T07:06:59;0;0;
63707;PMS5003;67643;-34.198;22.084;2023-06-10T07:09:28;0;0;
63707;PMS5003;67643;-34.198;22.084;2023-06-10T07:11:57;0;0;
63707;PMS5003;67643;-34.198;22.084;2023-06-10T07:14:25;4;4;
63707;PMS5003;67643;-34.198;22.084;2023-06-10T07:16:54;5;5;
63707;PMS5003;67643;-34.198;22.084;2023-06-10T07:19:22;6;5;
63707;PMS5003;67643;-34.198;22.084;2023-06-10T07:21:51;5;5;
63707;PMS5003;67643;-34.198;22.084;2023-06-10T07:24:20;8;7;
63707;PMS5003;67643;-34.198;22.084;2023-06-10T07:26:49;9;8;
63707;PMS5003;67643;-34.198;22.084;2023-06-10T07:29:17;9;8;
63707;PMS5003;67643;-34.198;22.084;2023-06-10T07:31:46;8;8;
63707;PMS5003;67643;-34.198;22.084;2023-06-10T07:34:15;11;8;
63707;PMS5003;67643;-34.198;22.084;2023-06-10T07:36:43;10;8;
63707;PMS5003;67643;-34.198;22.084;2023-06-10T07:39:11;9;7;
63707;PMS5003;67643;-34.198;22.084;2023-06-10T07:41:40;13;9;
63707;PMS5003;67643;-34.198;22.084;2023-06-10T07:44:09;10;7;
63707;PMS5003;67643;-34.198;22.084;2023-06-10T07:46:37;8;7;
63707;PMS5003;67643;-34.198;22.084;2023-06-10T07:49:06;10;7;
63707;PMS5003;67643;-34.198;22.084;2023-06-10T07:51:35;9;7;
63707;PMS5003;67643;-34.198;22.084;2023-06-10T07:54:03;7;6;
63707;PMS5003;67643;-34.198;22.084;2023-06-10T07:56:32;11;8;
63707;PMS5003;67643;-34.198;22.084;2023-06-10T07:59:00;8;7;
63707;PMS5003;67643;-34.198;22.084;2023-06-10T08:01:29;11;6;
63707;PMS5003;67643;-34.198;22.084;2023-06-10T08:03:57;11;8;
63707;PMS5003;67643;-34.198;22.084;2023-06-10T08:06:26;9;8;
63707;PMS5003;67643;-34.198;22.084;2023-06-10T08:08:54;9;7;
63707;PMS5003;67643;-34.198;22.084;2023-06-10T08:11:23;14;11;
63707;PMS5003;67643;-34.198;22.084;2023-06-10T08:13:52;16;11;
63707;PMS5003;67643;-34.198;22.084;2023-06-10T08:16:20;15;10;
63707;PMS5003;67643;-34.198;22.084;2023-06-10T08:18:49;11;10;
63707;PMS5003;67643;-34.198;22.084;2023-06-10T08:21:17;16;11;
63707;PMS5003;67643;-34.198;22.084;2023-06-10T08:23:46;17;15;
63707;PMS5003;67643;-34.198;22.084;2023-06-10T08:26:14;15;14;
63707;PMS5003;67643;-34.198;22.084;2023-06-10T08:28:43;17;12;
63707;PMS5003;67643;-34.198;22.084;2023-06-10T08:31:11;15;13;
63707;PMS5003;67643;-34.198;22.084;2023-06-10T08:33:41;21;18;
63707;PMS5003;67643;-34.198;22.084;2023-06-10T08:36:09;21;16;
63707;PMS5003;67643;-34.198;22.084;2023-06-10T08:38:38;18;14;
63707;PMS5003;67643;-34.198;22.084;2023-06-10T08:41:06;19;13;
63707;PMS5003;67643;-34.198;22.084;2023-06-10T08:43:37;19;12;
63707;PMS5003;67643;-34.198;22.084;2023-06-10T08:46:11;26;18;
63707;PMS5003;67643;-34.198;22.084;2023-06-10T08:48:42;22;16;
63707;PMS5003;67643;-34.198;22.084;2023-06-10T08:51:12;27;17;
63707;PMS5003;67643;-34.198;22.084;2023-06-10T08:53:48;19;12;
63707;PMS5003;67643;-34.198;22.084;2023-06-10T08:56:26;18;12;
63707;PMS5003;67643;-34.198;22.084;2023-06-10T08:58:57;22;16;
63707;PMS5003;67643;-34.198;22.084;2023-06-10T09:01:26;30;22;
63707;PMS5003;67643;-34.198;22.084;2023-06-10T09:03:55;27;17;
63707;PMS5003;67643;-34.198;22.084;2023-06-10T09:06:24;20;12;
63707;PMS5003;67643;-34.198;22.084;2023-06-10T09:08:53;21;16;
63707;PMS5003;67643;-34.198;22.084;2023-06-10T09:11:22;30;14;
63707;PMS5003;67643;-34.198;22.084;2023-06-10T09:13:50;18;13;
63707;PMS5003;67643;-34.198;22.084;2023-06-10T09:16:19;21;12;
63707;PMS5003;67643;-34.198;22.084;2023-06-10T09:18:47;21;12;
63707;PMS5003;67643;-34.198;22.084;2023-06-10T09:21:16;17;13;
63707;PMS5003;67643;-34.198;22.084;2023-06-10T09:23:45;29;16;
63707;PMS5003;67643;-34.198;22.084;2023-06-10T09:26:15;20;11;
63707;PMS5003;67643;-34.198;22.084;2023-06-10T09:28:44;19;15;
63707;PMS5003;67643;-34.198;22.084;2023-06-10T09:31:15;14;10;
63707;PMS5003;67643;-34.198;22.084;2023-06-10T09:33:43;17;10;
63707;PMS5003;67643;-34.198;22.084;2023-06-10T09:36:12;19;14;
63707;PMS5003;67643;-34.198;22.084;2023-06-10T09:38:49;13;13;
63707;PMS5003;67643;-34.198;22.084;2023-06-10T09:41:18;14;10;
63707;PMS5003;67643;-34.198;22.084;2023-06-10T09:43:46;17;10;
63707;PMS5003;67643;-34.198;22.084;2023-06-10T09:46:15;11;11;
63707;PMS5003;67643;-34.198;22.084;2023-06-10T09:48:44;16;12;
63707;PMS5003;67643;-34.198;22.084;2023-06-10T09:51:13;19;13;
63707;PMS5003;67643;-34.198;22.084;2023-06-10T09:53:43;21;11;
63707;PMS5003;67643;-34.198;22.084;2023-06-10T09:56:16;15;15;
63707;PMS5003;67643;-34.198;22.084;2023-06-10T09:58:44;13;9;
63707;PMS5003;67643;-34.198;22.084;2023-06-10T10:01:14;18;12;
63707;PMS5003;67643;-34.198;22.084;2023-06-10T10:03:44;12;10;
63707;PMS5003;67643;-34.198;22.084;2023-06-10T10:06:14;16;12;
63707;PMS5003;67643;-34.198;22.084;2023-06-10T10:08:44;17;13;
63707;PMS5003;67643;-34.198;22.084;2023-06-10T10:11:14;14;8;
63707;PMS5003;67643;-34.198;22.084;2023-06-10T10:13:45;12;9;
63707;PMS5003;67643;-34.198;22.084;2023-06-10T10:16:17;13;8;
63707;PMS5003;67643;-34.198;22.084;2023-06-10T10:18:50;12;8;
63707;PMS5003;67643;-34.198;22.084;2023-06-10T10:21:22;8;8;
63707;PMS5003;67643;-34.198;22.084;2023-06-10T10:23:53;15;7;
63707;PMS5003;67643;-34.198;22.084;2023-06-10T10:26:27;15;9;
63707;PMS5003;67643;-34.198;22.084;2023-06-10T10:29:01;11;7;
63707;PMS5003;67643;-34.198;22.084;2023-06-10T10:31:37;10;10;
63707;PMS5003;67643;-34.198;22.084;2023-06-10T10:34:07;13;10;
63707;PMS5003;67643;-34.198;22.084;2023-06-10T10:36:40;12;10;
63707;PMS5003;67643;-34.198;22.084;2023-06-10T10:39:09;13;9;
63707;PMS5003;67643;-34.198;22.084;2023-06-10T10:41:38;11;7;
63707;PMS5003;67643;-34.198;22.084;2023-06-10T10:44:07;15;6;
63707;PMS5003;67643;-34.198;22.084;2023-06-10T10:46:42;8;5;
63707;PMS5003;67643;-34.198;22.084;2023-06-10T10:49:11;7;6;
63707;PMS5003;67643;-34.198;22.084;2023-06-10T10:51:58;9;6;
63707;PMS5003;67643;-34.198;22.084;2023-06-10T10:54:28;11;6;
63707;PMS5003;67643;-34.198;22.084;2023-06-10T10:57:15;10;5;
63707;PMS5003;67643;-34.198;22.084;2023-06-10T10:59:45;10;6;
63707;PMS5003;67643;-34.198;22.084;2023-06-10T11:02:31;11;4;
63707;PMS5003;67643;-34.198;22.084;2023-06-10T11:05:02;6;5;
63707;PMS5003;67643;-34.198;22.084;2023-06-10T11:07:31;9;6;
63707;PMS5003;67643;-34.198;22.084;2023-06-10T11:10:01;5;4;
63707;PMS5003;67643;-34.198;22.084;2023-06-10T11:12:50;4;3;
63707;PMS5003;67643;-34.198;22.084;2023-06-10T11:15:20;5;5;
63707;PMS5003;67643;-34.198;22.084;2023-06-10T11:18:23;11;9;
63707;PMS5003;67643;-34.198;22.084;2023-06-10T11:20:55;10;5;
63707;PMS5003;67643;-34.198;22.084;2023-06-10T11:23:26;8;5;
63707;PMS5003;67643;-34.198;22.084;2023-06-10T11:26:17;3;3;
63707;PMS5003;67643;-34.198;22.084;2023-06-10T11:29:05;5;5;
63707;PMS5003;67643;-34.198;22.084;2023-06-10T11:31:40;5;4;
63707;PMS5003;67643;-34.198;22.084;2023-06-10T11:34:10;4;4;
63707;PMS5003;67643;-34.198;22.084;2023-06-10T11:36:40;7;4;
63707;PMS5003;67643;-34.198;22.084;2023-06-10T11:39:09;9;4;
63707;PMS5003;67643;-34.198;22.084;2023-06-10T11:41:38;6;4;
63707;PMS5003;67643;-34.198;22.084;2023-06-10T11:44:08;5;2;
63707;PMS5003;67643;-34.198;22.084;2023-06-10T11:46:38;3;3;
63707;PMS5003;67643;-34.198;22.084;2023-06-10T11:49:08;4;4;
63707;PMS5003;67643;-34.198;22.084;2023-06-10T11:51:37;8;4;
63707;PMS5003;67643;-34.198;22.084;2023-06-10T11:54:08;6;3;
63707;PMS5003;67643;-34.198;22.084;2023-06-10T11:56:37;5;5;
63707;PMS5003;67643;-34.198;22.084;2023-06-10T11:59:06;5;3;
63707;PMS5003;67643;-34.198;22.084;2023-06-10T12:01:35;6;5;
63707;PMS5003;67643;-34.198;22.084;2023-06-10T12:04:05;2;2;
63707;PMS5003;67643;-34.198;22.084;2023-06-10T12:06:38;4;2;
63707;PMS5003;67643;-34.198;22.084;2023-06-10T12:09:13;3;3;
63707;PMS5003;67643;-34.198;22.084;2023-06-10T12:11:42;6;3;
63707;PMS5003;67643;-34.198;22.084;2023-06-10T12:14:11;2;1;
63707;PMS5003;67643;-34.198;22.084;2023-06-10T12:16:40;3;2;
63707;PMS5003;67643;-34.198;22.084;2023-06-10T12:19:16;6;2;
63707;PMS5003;67643;-34.198;22.084;2023-06-10T12:21:45;3;2;
63707;PMS5003;67643;-34.198;22.084;2023-06-10T12:24:13;7;3;
63707;PMS5003;67643;-34.198;22.084;2023-06-10T12:26:42;5;1;
63707;PMS5003;67643;-34.198;22.084;2023-06-10T12:29:19;3;3;
63707;PMS5003;67643;-34.198;22.084;2023-06-10T12:31:53;4;3;
63707;PMS5003;67643;-34.198;22.084;2023-06-10T12:34:29;5;2;
63707;PMS5003;67643;-34.198;22.084;2023-06-10T12:36:58;5;5;
63707;PMS5003;67643;-34.198;22.084;2023-06-10T12:39:27;1;0;
63707;PMS5003;67643;-34.198;22.084;2023-06-10T12:41:55;3;1;
63707;PMS5003;67643;-34.198;22.084;2023-06-10T12:44:32;7;1;
63707;PMS5003;67643;-34.198;22.084;2023-06-10T12:47:06;2;2;
63707;PMS5003;67643;-34.198;22.084;2023-06-10T12:49:35;5;1;
63707;PMS5003;67643;-34.198;22.084;2023-06-10T12:52:03;3;2;
63707;PMS5003;67643;-34.198;22.084;2023-06-10T12:54:34;2;1;
63707;PMS5003;67643;-34.198;22.084;2023-06-10T12:57:02;4;2;
63707;PMS5003;67643;-34.198;22.084;2023-06-10T12:59:31;5;4;
63707;PMS5003;67643;-34.198;22.084;2023-06-10T13:02:00;2;2;
63707;PMS5003;67643;-34.198;22.084;2023-06-10T13:04:28;4;1;
63707;PMS5003;67643;-34.198;22.084;2023-06-10T13:06:57;7;1;
63707;PMS5003;67643;-34.198;22.084;2023-06-10T13:09:25;4;3;
63707;PMS5003;67643;-34.198;22.084;2023-06-10T13:11:54;4;3;
63707;PMS5003;67643;-34.198;22.084;2023-06-10T13:14:22;6;3;
63707;PMS5003;67643;-34.198;22.084;2023-06-10T13:16:51;9;3;
63707;PMS5003;67643;-34.198;22.084;2023-06-10T13:19:20;6;2;
63707;PMS5003;67643;-34.198;22.084;2023-06-10T13:21:48;6;4;
63707;PMS5003;67643;-34.198;22.084;2023-06-10T13:24:16;4;4;
63707;PMS5003;67643;-34.198;22.084;2023-06-10T13:26:45;2;2;
63707;PMS5003;67643;-34.198;22.084;2023-06-10T13:29:13;4;2;
63707;PMS5003;67643;-34.198;22.084;2023-06-10T13:31:42;5;4;
63707;PMS5003;67643;-34.198;22.084;2023-06-10T13:34:10;2;2;
63707;PMS5003;67643;-34.198;22.084;2023-06-10T13:36:39;3;2;
63707;PMS5003;67643;-34.198;22.084;2023-06-10T13:39:07;3;3;
63707;PMS5003;67643;-34.198;22.084;2023-06-10T13:41:36;2;2;
63707;PMS5003;67643;-34.198;22.084;2023-06-10T13:44:04;2;1;
63707;PMS5003;67643;-34.198;22.084;2023-06-10T13:46:33;7;4;
63707;PMS5003;67643;-34.198;22.084;2023-06-10T13:49:01;6;3;
63707;PMS5003;67643;-34.198;22.084;2023-06-10T13:51:30;2;2;
63707;PMS5003;67643;-34.198;22.084;2023-06-10T13:53:58;1;1;
63707;PMS5003;67643;-34.198;22.084;2023-06-10T13:56:27;5;3;
63707;PMS5003;67643;-34.198;22.084;2023-06-10T13:58:55;2;2;
63707;PMS5003;67643;-34.198;22.084;2023-06-10T16:06:23;17;16;
63707;PMS5003;67643;-34.198;22.084;2023-06-10T16:08:51;5;5;
63707;PMS5003;67643;-34.198;22.084;2023-06-10T16:11:20;6;6;
63707;PMS5003;67643;-34.198;22.084;2023-06-10T16:13:48;11;7;
63707;PMS5003;67643;-34.198;22.084;2023-06-10T16:16:17;12;9;
63707;PMS5003;67643;-34.198;22.084;2023-06-10T16:18:45;8;8;
63707;PMS5003;67643;-34.198;22.084;2023-06-10T16:21:14;7;7;
63707;PMS5003;67643;-34.198;22.084;2023-06-10T16:23:43;8;8;
63707;PMS5003;67643;-34.198;22.084;2023-06-10T16:26:11;10;6;
63707;PMS5003;67643;-34.198;22.084;2023-06-10T16:28:40;8;7;
63707;PMS5003;67643;-34.198;22.084;2023-06-10T16:31:08;10;7;
63707;PMS5003;67643;-34.198;22.084;2023-06-10T16:33:37;8;7;
63707;PMS5003;67643;-34.198;22.084;2023-06-10T16:36:05;8;7;
63707;PMS5003;67643;-34.198;22.084;2023-06-10T16:43:47;13;12;
63707;PMS5003;67643;-34.198;22.084;2023-06-10T16:46:16;15;15;
63707;PMS5003;67643;-34.198;22.084;2023-06-10T16:48:44;15;14;
63707;PMS5003;67643;-34.198;22.084;2023-06-10T16:51:13;12;12;
63707;PMS5003;67643;-34.198;22.084;2023-06-10T16:53:41;11;10;
63707;PMS5003;67643;-34.198;22.084;2023-06-10T16:56:09;12;10;
63707;PMS5003;67643;-34.198;22.084;2023-06-10T16:58:38;15;13;
63707;PMS5003;67643;-34.198;22.084;2023-06-10T17:01:07;14;12;
63707;PMS5003;67643;-34.198;22.084;2023-06-10T17:03:36;11;11;
63707;PMS5003;67643;-34.198;22.084;2023-06-10T17:06:04;13;11;
63707;PMS5003;67643;-34.198;22.084;2023-06-10T17:08:34;10;8;
63707;PMS5003;67643;-34.198;22.084;2023-06-10T17:11:03;13;12;
63707;PMS5003;67643;-34.198;22.084;2023-06-10T17:13:31;10;10;
63707;PMS5003;67643;-34.198;22.084;2023-06-10T17:16:00;15;12;
63707;PMS5003;67643;-34.198;22.084;2023-06-10T17:18:29;12;12;
63707;PMS5003;67643;-34.198;22.084;2023-06-10T17:20:58;9;9;
63707;PMS5003;67643;-34.198;22.084;2023-06-10T17:23:26;11;10;
63707;PMS5003;67643;-34.198;22.084;2023-06-10T17:25:55;15;11;
63707;PMS5003;67643;-34.198;22.084;2023-06-10T17:28:23;17;14;
63707;PMS5003;67643;-34.198;22.084;2023-06-10T17:30:52;25;24;
63707;PMS5003;67643;-34.198;22.084;2023-06-10T17:33:20;36;31;
63707;PMS5003;67643;-34.198;22.084;2023-06-10T17:35:49;43;37;
63707;PMS5003;67643;-34.198;22.084;2023-06-10T17:38:18;50;49;
63707;PMS5003;67643;-34.198;22.084;2023-06-10T17:40:46;54;50;
63707;PMS5003;67643;-34.198;22.084;2023-06-10T17:43:15;59;55;
63707;PMS5003;67643;-34.198;22.084;2023-06-10T17:45:43;40;36;
63707;PMS5003;67643;-34.198;22.084;2023-06-10T17:48:12;48;41;
63707;PMS5003;67643;-34.198;22.084;2023-06-10T17:50:40;34;32;
63707;PMS5003;67643;-34.198;22.084;2023-06-10T17:53:09;39;39;
63707;PMS5003;67643;-34.198;22.084;2023-06-10T17:55:37;35;31;
63707;PMS5003;67643;-34.198;22.084;2023-06-10T17:58:06;36;31;
63707;PMS5003;67643;-34.198;22.084;2023-06-10T18:00:34;31;27;
63707;PMS5003;67643;-34.198;22.084;2023-06-10T18:03:02;41;31;
63707;PMS5003;67643;-34.198;22.084;2023-06-10T18:05:31;31;27;
63707;PMS5003;67643;-34.198;22.084;2023-06-10T18:08:00;26;25;
63707;PMS5003;67643;-34.198;22.084;2023-06-10T18:10:30;29;27;
63707;PMS5003;67643;-34.198;22.084;2023-06-10T18:12:58;29;24;
63707;PMS5003;67643;-34.198;22.084;2023-06-10T18:15:27;34;31;
63707;PMS5003;67643;-34.198;22.084;2023-06-10T18:17:56;26;24;
63707;PMS5003;67643;-34.198;22.084;2023-06-10T18:20:24;26;23;
63707;PMS5003;67643;-34.198;22.084;2023-06-10T18:22:52;27;24;
63707;PMS5003;67643;-34.198;22.084;2023-06-10T18:25:21;29;24;
63707;PMS5003;67643;-34.198;22.084;2023-06-10T18:27:49;23;22;
63707;PMS5003;67643;-34.198;22.084;2023-06-10T18:30:18;23;18;
63707;PMS5003;67643;-34.198;22.084;2023-06-10T18:32:47;24;21;
63707;PMS5003;67643;-34.198;22.084;2023-06-10T18:35:15;23;18;